Time;durP1;ratioP1;P1;durP2;ratioP2;P2;SDS_P1;SDS_P2;PMS_P1;PMS_P2;Temp;Humidity;BMP_temperature;BMP_pressure;BME280_temperature;BME280_humidity;BME280_pressure;Samples;Min_cycle;Max_cycle;Signal;HPM_P1;HPM_P2
2023/02/04 08:21:09;;;;;;;3.37;0.80;;;15.40;48.00;;;;;;5183383;23;20959;-67
2023/02/04 08:23:40;;;;;;;1.63;0.90;;;15.40;48.00;;;;;;4938167;29;20458;-67
2023/02/04 08:26:07;;;;;;;2.33;1.07;;;15.50;48.10;;;;;;4937880;29;20206;-67
2023/02/04 08:28:33;;;;;;;1.53;0.80;;;15.50;48.10;;;;;;4937932;29;20415;-67
2023/02/04 08:30:58;;;;;;;1.80;0.80;;;15.50;48.10;;;;;;4936272;29;20454;-66
2023/02/04 08:33:24;;;;;;;1.40;0.90;;;15.50;48.00;;;;;;4937954;29;20179;-66
2023/02/04 08:35:50;;;;;;;1.20;0.87;;;15.50;48.00;;;;;;4937629;29;20179;-67
2023/02/04 08:38:16;;;;;;;6.30;1.47;;;15.50;48.10;;;;;;4937889;29;20238;-68
2023/02/04 08:40:42;;;;;;;7.00;1.87;;;15.60;46.70;;;;;;4937595;29;20951;-66
2023/02/04 08:43:07;;;;;;;3.80;1.30;;;15.50;44.80;;;;;;4936116;29;20203;-66
2023/02/04 08:45:33;;;;;;;3.87;1.60;;;15.50;45.50;;;;;;4937351;29;20541;-66
2023/02/04 08:47:58;;;;;;;4.53;1.53;;;15.50;45.90;;;;;;4937318;29;20187;-66
2023/02/04 08:50:24;;;;;;;4.37;1.40;;;15.50;46.20;;;;;;4937426;29;20204;-66
2023/02/04 08:52:50;;;;;;;2.57;1.20;;;15.50;46.40;;;;;;4937358;29;20180;-66
2023/02/04 08:55:15;;;;;;;3.33;1.40;;;15.50;46.60;;;;;;4935906;29;20164;-66
2023/02/04 08:57:41;;;;;;;4.90;1.53;;;15.60;46.80;;;;;;4937282;29;20164;-66
2023/02/04 09:00:09;;;;;;;1.67;1.47;;;15.60;46.90;;;;;;4937101;29;20187;-66
2023/02/04 09:02:34;;;;;;;3.87;1.40;;;15.70;47.00;;;;;;4937159;29;20211;-66
2023/02/04 09:05:00;;;;;;;2.27;1.07;;;15.70;47.00;;;;;;4937274;29;20837;-66
2023/02/04 09:07:25;;;;;;;2.60;1.30;;;15.70;47.10;;;;;;4937439;29;20194;-66
2023/02/04 09:09:51;;;;;;;2.40;1.23;;;15.80;47.20;;;;;;4937417;29;20242;-66
2023/02/04 09:12:16;;;;;;;1.63;1.00;;;15.80;47.30;;;;;;4937097;29;20262;-66
2023/02/04 09:14:42;;;;;;;3.00;1.10;;;15.80;47.30;;;;;;4936874;29;20275;-66
2023/02/04 09:17:07;;;;;;;2.00;1.00;;;15.90;47.40;;;;;;4936874;29;20183;-66
2023/02/04 09:19:33;;;;;;;2.90;1.03;;;15.90;47.50;;;;;;4936878;29;20177;-64
2023/02/04 09:21:59;;;;;;;3.10;1.20;;;15.90;47.50;;;;;;4937192;29;20648;-64
2023/02/04 09:24:24;;;;;;;1.90;1.20;;;16.00;47.60;;;;;;4937179;29;20175;-64
2023/02/04 09:26:50;;;;;;;1.53;1.30;;;16.00;47.80;;;;;;4937061;29;20643;-63
2023/02/04 09:29:16;;;;;;;4.23;1.23;;;16.00;47.70;;;;;;4936869;29;20711;-66
2023/02/04 09:31:41;;;;;;;3.17;1.30;;;16.10;47.80;;;;;;4936797;29;20183;-67
2023/02/04 09:34:07;;;;;;;2.23;1.20;;;16.10;47.80;;;;;;4936634;29;20647;-66
2023/02/04 09:36:36;;;;;;;2.13;1.47;;;16.10;47.80;;;;;;4936588;29;20278;-66
2023/02/04 09:39:04;;;;;;;2.40;1.30;;;16.20;48.00;;;;;;4936636;29;20473;-67
2023/02/04 09:41:31;;;;;;;2.80;1.47;;;16.20;47.90;;;;;;4936202;29;20473;-66
2023/02/04 09:43:58;;;;;;;1.37;1.00;;;16.30;48.00;;;;;;4935560;29;20414;-67
2023/02/04 09:46:28;;;;;;;3.33;1.03;;;16.30;48.00;;;;;;4936479;29;20442;-66
2023/02/04 09:48:55;;;;;;;2.50;1.10;;;16.30;47.90;;;;;;4936875;29;20822;-66
2023/02/04 09:51:25;;;;;;;1.80;1.30;;;16.40;48.00;;;;;;4936536;29;20501;-66
2023/02/04 09:53:52;;;;;;;2.50;1.10;;;16.40;48.00;;;;;;4936315;29;20411;-66
2023/02/04 09:56:18;;;;;;;1.90;1.13;;;16.40;48.00;;;;;;4936520;29;20498;-67
2023/02/04 09:58:44;;;;;;;3.00;1.20;;;16.40;48.50;;;;;;4936390;29;20936;-67
2023/02/04 10:01:14;;;;;;;2.20;1.00;;;16.50;48.00;;;;;;4936564;29;20195;-67
2023/02/04 10:03:45;;;;;;;1.80;0.97;;;16.50;48.10;;;;;;4938099;28;20217;-66
2023/02/04 10:06:18;;;;;;;2.50;1.00;;;16.50;48.10;;;;;;4935725;29;20415;-67
2023/02/04 10:08:46;;;;;;;1.60;0.90;;;16.50;48.70;;;;;;4936286;29;20399;-66
2023/02/04 10:11:13;;;;;;;1.30;1.00;;;16.60;48.20;;;;;;4935930;29;20490;-66
2023/02/04 10:13:52;;;;;;;1.57;0.80;;;16.60;48.10;;;;;;4936298;29;20456;-66
2023/02/04 10:16:48;;;;;;;1.30;0.90;;;16.70;48.20;;;;;;4936068;29;20734;-66
2023/02/04 10:19:15;;;;;;;1.40;1.07;;;16.70;48.20;;;;;;4934840;29;20902;-66
2023/02/04 10:21:46;;;;;;;1.30;0.90;;;16.70;48.10;;;;;;4935914;29;20557;-66
2023/02/04 10:24:26;;;;;;;3.70;1.10;;;16.80;48.20;;;;;;4936707;29;20391;-64
2023/02/04 10:26:53;;;;;;;2.77;1.00;;;16.80;48.10;;;;;;4936039;29;20465;-64
2023/02/04 10:29:23;;;;;;;1.20;0.97;;;16.80;48.10;;;;;;4935657;29;20456;-64
2023/02/04 10:31:50;;;;;;;1.20;0.90;;;16.80;48.10;;;;;;4936045;29;20395;-64
2023/02/04 10:34:32;;;;;;;2.20;1.00;;;16.90;48.10;;;;;;4935918;29;20423;-64
2023/02/04 10:36:57;;;;;;;1.43;1.07;;;16.90;48.10;;;;;;4935936;29;20418;-64
2023/02/04 10:39:25;;;;;;;1.83;1.23;;;16.90;48.10;;;;;;4935048;29;20417;-65
2023/02/04 10:42:00;;;;;;;1.10;0.80;;;16.90;48.00;;;;;;4936108;29;20199;-65
2023/02/04 10:44:29;;;;;;;1.00;0.83;;;16.90;48.00;;;;;;4936649;29;20462;-65
2023/02/04 10:47:03;;;;;;;1.50;0.90;;;16.90;48.00;;;;;;4936221;29;20408;-66
2023/02/04 10:49:29;;;;;;;1.50;1.17;;;17.00;48.00;;;;;;4935911;29;20949;-65
2023/02/04 10:51:55;;;;;;;2.10;0.87;;;17.00;48.00;;;;;;4936162;29;20788;-65
2023/02/04 10:54:30;;;;;;;1.23;0.80;;;16.90;47.90;;;;;;4937048;29;20415;-65
2023/02/04 10:56:58;;;;;;;2.03;0.90;;;17.00;47.90;;;;;;4940220;29;20739;-65
2023/02/04 10:59:28;;;;;;;1.73;0.90;;;17.00;47.90;;;;;;4939674;29;20423;-65
2023/02/04 11:01:56;;;;;;;1.50;0.80;;;17.00;47.90;;;;;;4939804;29;20800;-65
2023/02/04 11:04:21;;;;;;;2.50;1.43;;;17.00;47.90;;;;;;4939564;29;20414;-64
2023/02/04 11:06:47;;;;;;;1.43;0.77;;;17.10;47.90;;;;;;4939850;29;20457;-65
2023/02/04 11:09:13;;;;;;;1.30;0.97;;;17.10;47.90;;;;;;4939855;29;20548;-65
2023/02/04 11:11:45;;;;;;;1.20;0.90;;;17.10;47.90;;;;;;4939413;29;20600;-65
2023/02/04 11:14:26;;;;;;;1.33;0.90;;;17.10;47.80;;;;;;4939463;29;20433;-65
2023/02/04 11:16:53;;;;;;;1.20;0.87;;;17.10;47.80;;;;;;4939496;29;20945;-67
2023/02/04 11:19:35;;;;;;;1.50;0.80;;;17.10;47.80;;;;;;4938850;29;20435;-66
2023/02/04 11:22:25;;;;;;;0.90;0.70;;;17.20;47.80;;;;;;4938806;29;20455;-66
2023/02/04 11:24:51;;;;;;;1.00;0.70;;;17.20;47.80;;;;;;4928522;29;20838;-66
2023/02/04 11:27:23;;;;;;;1.03;0.80;;;17.20;47.70;;;;;;4939066;29;20411;-66
2023/02/04 11:29:49;;;;;;;2.57;0.90;;;17.20;47.80;;;;;;4938961;29;20195;-67
2023/02/04 11:32:30;;;;;;;3.33;1.30;;;17.20;47.70;;;;;;4938870;29;20426;-66
2023/02/04 11:35:11;;;;;;;1.10;0.80;;;17.20;47.70;;;;;;4938963;29;20418;-66
2023/02/04 11:37:42;;;;;;;1.00;0.83;;;17.20;47.70;;;;;;4938890;29;20486;-66
2023/02/04 11:40:26;;;;;;;1.00;0.70;;;17.20;47.60;;;;;;4938670;29;20897;-64
2023/02/04 11:43:18;;;;;;;0.93;0.77;;;17.20;47.60;;;;;;4938517;29;20468;-64
2023/02/04 11:45:44;;;;;;;1.63;0.70;;;17.20;47.60;;;;;;4938356;29;20419;-64
2023/02/04 11:48:17;;;;;;;1.03;0.73;;;17.20;47.60;;;;;;4937397;29;20510;-65
2023/02/04 11:50:53;;;;;;;1.00;0.73;;;17.30;47.70;;;;;;4938950;29;20434;-65
2023/02/04 11:53:22;;;;;;;2.00;1.00;;;17.30;47.60;;;;;;4939014;29;20422;-65
2023/02/04 11:55:48;;;;;;;2.07;1.07;;;17.30;47.70;;;;;;4938828;29;20418;-65
2023/02/04 11:58:17;;;;;;;1.33;0.80;;;17.30;47.60;;;;;;4937528;29;20737;-65
2023/02/04 12:00:43;;;;;;;3.33;1.00;;;17.30;47.60;;;;;;4938436;29;20282;-63
2023/02/04 12:03:35;;;;;;;1.50;1.00;;;17.30;47.50;;;;;;4938320;29;20459;-66
2023/02/04 12:06:01;;;;;;;1.30;0.80;;;17.30;47.50;;;;;;4937522;29;20391;-66
2023/02/04 12:08:32;;;;;;;2.00;0.80;;;17.30;47.50;;;;;;4938745;29;20430;-66
2023/02/04 12:11:01;;;;;;;2.30;0.80;;;17.40;47.60;;;;;;4938169;29;20442;-66
2023/02/04 12:13:27;;;;;;;0.90;0.80;;;17.40;47.60;;;;;;4938295;29;20423;-66
2023/02/04 12:16:00;;;;;;;1.20;0.90;;;17.40;47.50;;;;;;4938261;29;20771;-66
2023/02/04 12:18:26;;;;;;;2.57;1.00;;;17.40;47.50;;;;;;4937998;29;20421;-66
2023/02/04 12:20:53;;;;;;;1.00;0.70;;;17.40;47.50;;;;;;4937630;29;20451;-66
2023/02/04 12:23:19;;;;;;;1.17;0.87;;;17.40;47.40;;;;;;4937846;29;20510;-66
2023/02/04 12:25:44;;;;;;;1.17;0.90;;;17.50;47.50;;;;;;4938032;29;20418;-66
2023/02/04 12:28:10;;;;;;;1.23;0.60;;;17.50;47.50;;;;;;4937769;29;20335;-66
2023/02/04 12:30:36;;;;;;;1.10;0.80;;;17.50;47.50;;;;;;4937950;29;20199;-66
2023/02/04 12:33:01;;;;;;;1.00;0.90;;;17.50;47.50;;;;;;4937710;29;20258;-66
2023/02/04 12:35:27;;;;;;;1.57;0.73;;;17.50;48.00;;;;;;4937744;29;20747;-66
2023/02/04 12:37:52;;;;;;;2.53;1.83;;;17.50;47.40;;;;;;4937570;29;20182;-66
2023/02/04 12:40:20;;;;;;;1.30;1.00;;;17.50;47.40;;;;;;4937468;29;20190;-66
2023/02/04 12:42:45;;;;;;;1.40;0.90;;;17.50;47.40;;;;;;4937577;29;20238;-65
2023/02/04 12:45:13;;;;;;;2.80;0.93;;;17.50;47.40;;;;;;4937520;29;20835;-64
2023/02/04 12:47:39;;;;;;;1.10;0.80;;;17.50;47.30;;;;;;4937430;29;20186;-64
2023/02/04 12:50:06;;;;;;;1.20;0.80;;;17.50;47.30;;;;;;4936159;29;20435;-64
2023/02/04 12:52:32;;;;;;;2.30;1.00;;;17.50;47.30;;;;;;4937470;29;20485;-63
2023/02/04 12:54:59;;;;;;;0.90;0.70;;;17.50;47.30;;;;;;4937259;29;20423;-64
2023/02/04 12:57:24;;;;;;;2.17;0.90;;;17.50;47.30;;;;;;4937764;29;20469;-64
2023/02/04 12:59:50;;;;;;;1.20;0.80;;;17.50;47.30;;;;;;4937285;29;20430;-66
2023/02/04 13:02:16;;;;;;;1.20;0.80;;;17.50;47.30;;;;;;4937281;29;20555;-65
2023/02/04 13:04:42;;;;;;;1.40;0.87;;;17.50;47.30;;;;;;4937274;29;20175;-65
2023/02/04 13:07:09;;;;;;;1.47;1.00;;;17.50;47.30;;;;;;4937117;29;20481;-65
2023/02/04 13:09:35;;;;;;;1.10;0.70;;;17.50;47.50;;;;;;4937362;29;20266;-64
2023/02/04 13:12:00;;;;;;;1.30;0.97;;;17.50;47.40;;;;;;4936941;29;20819;-64
2023/02/04 13:14:26;;;;;;;1.90;0.97;;;17.50;47.40;;;;;;4937197;29;20566;-65
2023/02/04 13:16:52;;;;;;;2.20;0.97;;;17.40;47.30;;;;;;4936869;29;20299;-65
2023/02/04 13:19:17;;;;;;;1.20;0.90;;;17.50;47.40;;;;;;4936917;29;20176;-65
2023/02/04 13:21:43;;;;;;;1.70;0.80;;;17.50;47.40;;;;;;4936841;29;20671;-65
2023/02/04 13:24:08;;;;;;;1.17;0.70;;;17.40;47.40;;;;;;4936836;29;20171;-65
2023/02/04 13:26:34;;;;;;;0.97;0.70;;;17.40;47.40;;;;;;4937138;29;20207;-65
2023/02/04 13:28:59;;;;;;;1.20;0.87;;;17.40;47.40;;;;;;4937002;29;20497;-65
2023/02/04 13:31:25;;;;;;;1.23;0.90;;;17.40;47.40;;;;;;4937046;29;20254;-65
2023/02/04 13:33:51;;;;;;;1.00;0.80;;;17.40;47.40;;;;;;4936681;29;20186;-65
2023/02/04 13:36:16;;;;;;;1.00;0.87;;;17.40;47.40;;;;;;4936884;29;20190;-64
2023/02/04 13:38:42;;;;;;;1.20;0.80;;;17.30;47.40;;;;;;4937795;29;20175;-64
2023/02/04 13:41:07;;;;;;;1.50;0.90;;;17.30;47.40;;;;;;4936537;29;20258;-65
2023/02/04 13:43:33;;;;;;;1.00;0.80;;;17.30;47.40;;;;;;4936709;29;20257;-65
2023/02/04 13:46:01;;;;;;;0.93;0.73;;;17.30;47.40;;;;;;4936665;29;20178;-65
2023/02/04 13:48:27;;;;;;;1.00;0.73;;;17.30;47.40;;;;;;4936749;29;20221;-66
2023/02/04 13:50:52;;;;;;;1.10;0.80;;;17.20;47.40;;;;;;4936648;29;20431;-66
2023/02/04 13:53:18;;;;;;;0.90;0.70;;;17.20;47.40;;;;;;4936317;29;20534;-66
2023/02/04 13:55:43;;;;;;;1.50;1.00;;;17.20;47.40;;;;;;4936340;29;20201;-65
2023/02/04 13:58:09;;;;;;;1.20;0.80;;;17.20;47.50;;;;;;4936381;29;20171;-64
2023/02/04 14:00:35;;;;;;;1.30;0.83;;;17.10;47.40;;;;;;4936187;29;20203;-64
2023/02/04 14:03:00;;;;;;;1.30;0.90;;;17.10;47.50;;;;;;4935975;29;20202;-64
2023/02/04 14:05:26;;;;;;;2.30;0.90;;;17.10;47.50;;;;;;4934786;29;20175;-64
2023/02/04 14:07:52;;;;;;;1.30;0.90;;;17.10;47.60;;;;;;4934793;29;20225;-64
2023/02/04 14:10:18;;;;;;;1.00;0.90;;;17.00;47.50;;;;;;4936198;29;20295;-63
2023/02/04 14:12:43;;;;;;;1.20;0.80;;;17.00;47.60;;;;;;4936257;29;20437;-64
2023/02/04 14:15:10;;;;;;;1.57;0.83;;;17.00;47.60;;;;;;4935981;29;20175;-63
2023/02/04 14:17:35;;;;;;;1.30;0.80;;;17.00;47.70;;;;;;4935866;29;20175;-63
2023/02/04 14:20:04;;;;;;;1.00;0.80;;;17.00;47.70;;;;;;4935790;29;20983;-63
2023/02/04 14:22:30;;;;;;;0.87;0.70;;;17.00;47.80;;;;;;4934869;29;20230;-64
2023/02/04 14:24:55;;;;;;;2.30;0.90;;;17.00;47.90;;;;;;4936120;29;20434;-63
2023/02/04 14:27:21;;;;;;;6.30;1.17;;;17.00;48.10;;;;;;4935089;29;20545;-63
2023/02/04 14:29:46;;;;;;;9.33;2.27;;;17.00;48.50;;;;;;4935648;29;20258;-63
2023/02/04 14:32:12;;;;;;;4.20;1.17;;;17.10;48.50;;;;;;4935966;29;20285;-64
2023/02/04 14:34:37;;;;;;;1.50;0.90;;;17.20;48.50;;;;;;4935976;29;20695;-64
2023/02/04 14:37:03;;;;;;;6.50;1.23;;;17.40;48.20;;;;;;4936141;29;20175;-63
2023/02/04 14:39:28;;;;;;;4.50;1.27;;;17.50;48.00;;;;;;4936030;29;20186;-64
2023/02/04 14:41:54;;;;;;;2.90;0.90;;;17.60;47.90;;;;;;4936349;29;20203;-64
2023/02/04 14:44:20;;;;;;;1.97;0.83;;;17.60;47.80;;;;;;4936332;29;20183;-64
2023/02/04 14:46:47;;;;;;;2.60;1.07;;;17.60;47.60;;;;;;4935955;29;20303;-64
2023/02/04 14:49:14;;;;;;;7.97;1.10;;;17.60;47.60;;;;;;4936081;29;20318;-64
2023/02/04 14:51:39;;;;;;;1.87;0.83;;;17.60;47.50;;;;;;4935815;29;20514;-64
2023/02/04 14:54:05;;;;;;;1.20;0.93;;;17.70;47.60;;;;;;4935606;29;20506;-64
2023/02/04 14:56:30;;;;;;;2.10;0.90;;;17.90;47.40;;;;;;4935613;29;20171;-64
2023/02/04 14:58:56;;;;;;;1.20;0.90;;;18.30;46.70;;;;;;4935904;29;20175;-64
2023/02/04 15:01:21;;;;;;;1.20;0.90;;;18.80;46.40;;;;;;4935479;29;20191;-64
2023/02/04 15:03:47;;;;;;;2.70;0.90;;;19.30;45.10;;;;;;4935401;29;20198;-66
2023/02/04 15:06:13;;;;;;;3.83;1.20;;;19.90;44.20;;;;;;4935629;29;20182;-66
2023/02/04 15:08:38;;;;;;;3.90;0.90;;;20.30;43.30;;;;;;4935463;29;20273;-67
2023/02/04 15:11:04;;;;;;;3.20;1.00;;;20.60;42.80;;;;;;4935429;29;20195;-67
2023/02/04 15:13:30;;;;;;;2.97;0.90;;;20.80;42.60;;;;;;4935434;29;20203;-66
2023/02/04 15:15:55;;;;;;;1.87;1.00;;;20.80;42.40;;;;;;4935340;29;20183;-66
2023/02/04 15:18:21;;;;;;;1.40;0.90;;;20.70;42.40;;;;;;4935228;29;20632;-66
2023/02/04 15:20:46;;;;;;;2.43;1.00;;;20.50;42.60;;;;;;4935301;29;20223;-66
2023/02/04 15:23:13;;;;;;;6.40;0.90;;;20.20;42.90;;;;;;4935253;29;20754;-66
2023/02/04 15:25:39;;;;;;;1.00;0.70;;;20.00;43.30;;;;;;4935433;29;20197;-67
2023/02/04 15:28:05;;;;;;;3.83;1.30;;;19.70;43.60;;;;;;4935261;29;20407;-67
2023/02/04 15:30:31;;;;;;;2.87;0.80;;;19.40;43.90;;;;;;4935269;29;20199;-63
2023/02/04 15:32:57;;;;;;;2.40;0.90;;;19.20;44.30;;;;;;4935179;29;20922;-63
2023/02/04 15:35:22;;;;;;;1.30;0.80;;;19.00;44.50;;;;;;4935474;29;20175;-63
2023/02/04 15:37:48;;;;;;;2.73;0.83;;;18.80;44.80;;;;;;4935276;29;20179;-63
2023/02/04 15:40:14;;;;;;;3.17;1.30;;;18.60;45.10;;;;;;4935146;29;20195;-64
2023/02/04 15:42:40;;;;;;;1.40;1.00;;;18.50;45.40;;;;;;4937946;29;20195;-63
2023/02/04 15:45:06;;;;;;;1.57;1.00;;;18.30;45.50;;;;;;4938759;29;20230;-64
2023/02/04 15:47:32;;;;;;;1.67;0.90;;;18.10;45.70;;;;;;4938885;29;20179;-64
2023/02/04 15:49:57;;;;;;;2.10;1.00;;;18.10;46.00;;;;;;4937341;29;20945;-63
2023/02/04 15:52:23;;;;;;;1.00;0.80;;;17.90;46.10;;;;;;4938817;29;20507;-64
2023/02/04 15:54:49;;;;;;;1.20;0.80;;;17.80;46.20;;;;;;4938762;29;20179;-66
2023/02/04 15:57:14;;;;;;;1.57;0.93;;;17.70;46.30;;;;;;4938743;29;20203;-66
2023/02/04 15:59:40;;;;;;;1.63;1.10;;;17.70;46.50;;;;;;4938597;29;20202;-66
2023/02/04 16:02:06;;;;;;;1.40;1.10;;;17.60;46.60;;;;;;4938405;29;20198;-67
2023/02/04 16:04:31;;;;;;;1.60;0.90;;;17.50;46.60;;;;;;4938493;29;20175;-66
2023/02/04 16:06:58;;;;;;;1.00;0.80;;;17.50;46.70;;;;;;4938391;29;20497;-66
2023/02/04 16:09:23;;;;;;;2.13;1.10;;;17.40;46.80;;;;;;4938068;29;20651;-66
2023/02/04 16:11:49;;;;;;;1.37;0.93;;;17.40;46.90;;;;;;4937908;29;20422;-66
2023/02/04 16:14:15;;;;;;;2.00;0.77;;;17.30;46.90;;;;;;4938108;29;20178;-66
2023/02/04 16:16:40;;;;;;;1.47;1.30;;;17.30;47.00;;;;;;4938331;29;20195;-63
2023/02/04 16:19:06;;;;;;;1.83;0.73;;;17.30;47.00;;;;;;4938110;29;20171;-64
2023/02/04 16:21:31;;;;;;;1.17;0.80;;;17.20;47.00;;;;;;4938560;29;20275;-64
2023/02/04 16:23:57;;;;;;;2.00;0.90;;;17.20;47.10;;;;;;4960800;23;20230;-64
2023/02/04 16:26:22;;;;;;;1.27;0.83;;;17.20;47.10;;;;;;4938462;29;20175;-65
2023/02/04 16:28:48;;;;;;;1.50;1.20;;;17.10;47.10;;;;;;4938256;29;20167;-64
2023/02/04 16:31:14;;;;;;;1.10;0.90;;;17.10;47.40;;;;;;4938548;29;20175;-64
2023/02/04 16:33:40;;;;;;;1.20;0.83;;;17.10;47.40;;;;;;4938090;29;20247;-64
2023/02/04 16:36:11;;;;;;;10.33;1.30;;;17.00;47.80;;;;;;4938367;29;20918;-65
2023/02/04 16:38:38;;;;;;;2.73;1.20;;;17.00;48.00;;;;;;4938376;29;20179;-65
2023/02/04 16:41:04;;;;;;;1.40;0.97;;;17.00;47.90;;;;;;4938227;29;20427;-65
2023/02/04 16:43:30;;;;;;;1.20;1.10;;;16.90;47.90;;;;;;4937960;29;20521;-65
2023/02/04 16:45:56;;;;;;;1.73;0.97;;;17.00;48.00;;;;;;4938155;29;20502;-63
2023/02/04 16:48:22;;;;;;;1.67;0.90;;;16.90;47.90;;;;;;4938013;29;20258;-64
2023/02/04 16:50:47;;;;;;;1.50;1.07;;;16.90;48.00;;;;;;4938187;29;20175;-65
2023/02/04 16:53:16;;;;;;;2.57;1.03;;;16.90;48.10;;;;;;4938059;29;20482;-65
2023/02/04 16:55:42;;;;;;;4.10;1.40;;;16.90;48.20;;;;;;4938039;29;20175;-65
2023/02/04 16:58:09;;;;;;;1.67;1.10;;;16.90;48.10;;;;;;4938047;29;20894;-64
2023/02/04 17:00:36;;;;;;;2.00;1.37;;;16.90;48.10;;;;;;4938017;29;20533;-64
2023/02/04 17:03:02;;;;;;;1.90;1.17;;;16.90;48.20;;;;;;4937572;29;20475;-65
2023/02/04 17:05:27;;;;;;;1.77;1.40;;;16.90;48.20;;;;;;4937736;29;20410;-64
2023/02/04 17:07:54;;;;;;;2.73;1.40;;;16.90;48.10;;;;;;4937816;29;20316;-66
2023/02/04 17:11:27;;;;;;;6.23;1.40;;;16.90;48.10;;;;;;4937854;29;20234;-65
2023/02/04 17:13:05;;;;;;;3.97;1.80;;;16.90;48.10;;;;;;4937303;29;20451;-66
2023/02/04 17:15:31;;;;;;;1.80;1.50;;;16.90;48.10;;;;;;4937793;29;20518;-65
2023/02/04 17:17:56;;;;;;;4.47;1.73;;;16.90;48.10;;;;;;4937588;29;20451;-64
2023/02/04 17:20:22;;;;;;;2.90;1.83;;;16.90;48.00;;;;;;4937648;29;20207;-66
2023/02/04 17:22:48;;;;;;;2.53;2.27;;;16.90;48.00;;;;;;4937269;29;20710;-65
2023/02/04 17:25:13;;;;;;;2.07;1.77;;;16.90;48.50;;;;;;4936307;29;20179;-65
2023/02/04 17:27:39;;;;;;;3.43;1.93;;;16.90;48.00;;;;;;4937389;29;20175;-65
2023/02/04 17:30:05;;;;;;;3.23;2.20;;;16.90;47.90;;;;;;4937729;29;20171;-65
2023/02/04 17:32:30;;;;;;;2.93;1.87;;;16.90;47.80;;;;;;4937298;29;20183;-65
2023/02/04 17:34:57;;;;;;;2.10;1.80;;;16.90;47.80;;;;;;4937453;29;20565;-65
2023/02/04 17:37:23;;;;;;;2.43;1.93;;;16.90;47.70;;;;;;4937494;29;20186;-65
2023/02/04 17:39:48;;;;;;;3.00;2.47;;;17.00;47.70;;;;;;4937205;29;20911;-65
2023/02/04 17:42:14;;;;;;;3.83;2.10;;;17.00;47.70;;;;;;4936943;29;20198;-66
2023/02/04 17:44:39;;;;;;;2.80;2.10;;;17.00;47.70;;;;;;4937888;29;20587;-65
2023/02/04 17:47:05;;;;;;;2.90;2.03;;;17.00;47.60;;;;;;4937223;29;20234;-65
2023/02/04 17:49:31;;;;;;;2.47;2.27;;;17.00;47.60;;;;;;4935630;29;20661;-65
2023/02/04 17:51:56;;;;;;;2.93;2.40;;;17.00;47.50;;;;;;4935816;29;20223;-65
2023/02/04 17:54:22;;;;;;;3.03;1.97;;;17.00;47.50;;;;;;4936894;29;20199;-63
2023/02/04 17:56:49;;;;;;;3.20;1.97;;;17.00;47.50;;;;;;4936800;29;20255;-65
2023/02/04 17:59:14;;;;;;;3.93;2.63;;;17.00;47.50;;;;;;4936769;29;20423;-64
2023/02/04 18:01:40;;;;;;;2.67;2.07;;;17.00;47.50;;;;;;4936575;29;20757;-65
2023/02/04 18:04:12;;;;;;;4.37;2.30;;;17.00;47.50;;;;;;4936028;29;20290;-65
2023/02/04 18:06:38;;;;;;;2.73;2.30;;;17.00;47.60;;;;;;4936691;29;20411;-63
2023/02/04 18:09:14;;;;;;;2.57;2.13;;;17.00;47.60;;;;;;4936603;29;20407;-65
2023/02/04 18:11:40;;;;;;;3.10;1.90;;;17.00;47.50;;;;;;4936513;29;20246;-64
2023/02/04 18:14:23;;;;;;;3.40;2.10;;;17.00;47.50;;;;;;4935155;29;20438;-65
2023/02/04 18:16:49;;;;;;;2.33;1.77;;;17.10;47.50;;;;;;4936594;29;20423;-65
2023/02/04 18:19:19;;;;;;;3.10;2.80;;;17.00;47.40;;;;;;4936627;29;20788;-65
2023/02/04 18:21:46;;;;;;;2.70;2.20;;;17.10;47.50;;;;;;4936460;29;20421;-65
2023/02/04 18:24:18;;;;;;;3.50;2.60;;;17.10;47.40;;;;;;4936097;29;20498;-63
2023/02/04 18:26:46;;;;;;;4.10;2.60;;;17.10;47.40;;;;;;4919787;29;20415;-65
2023/02/04 18:29:19;;;;;;;3.00;2.60;;;17.10;47.40;;;;;;4936431;29;20422;-65
2023/02/04 18:31:52;;;;;;;2.90;2.00;;;17.10;47.40;;;;;;4936425;29;20411;-65
2023/02/04 18:34:23;;;;;;;4.53;2.87;;;17.10;47.60;;;;;;4936203;29;20526;-65
2023/02/04 18:36:49;;;;;;;3.43;2.97;;;17.10;47.60;;;;;;4936296;29;20506;-66
2023/02/04 18:39:24;;;;;;;9.20;2.63;;;17.10;47.50;;;;;;4936242;29;20422;-64
2023/02/04 18:41:50;;;;;;;3.47;2.43;;;17.10;47.40;;;;;;4936388;29;20885;-64
2023/02/04 18:44:29;;;;;;;4.37;3.23;;;17.10;47.30;;;;;;4936094;29;20439;-65
2023/02/04 18:46:55;;;;;;;4.93;2.67;;;17.20;47.30;;;;;;4936182;29;20469;-63
2023/02/04 18:49:28;;;;;;;3.37;2.90;;;17.20;47.30;;;;;;4936200;29;20517;-65
2023/02/04 18:51:56;;;;;;;4.23;3.00;;;17.20;47.20;;;;;;4934929;29;20423;-64
2023/02/04 18:54:26;;;;;;;4.30;3.40;;;17.20;47.20;;;;;;4935946;29;20530;-64
2023/02/04 18:56:55;;;;;;;3.90;3.33;;;17.20;47.20;;;;;;4936219;29;20550;-64
2023/02/04 18:59:25;;;;;;;3.23;2.93;;;17.20;47.10;;;;;;4936174;29;20423;-64
2023/02/04 19:01:51;;;;;;;3.97;3.27;;;17.20;47.00;;;;;;4935872;29;20407;-64
2023/02/04 19:04:20;;;;;;;3.37;3.00;;;17.20;47.00;;;;;;4935947;29;20788;-65
2023/02/04 19:06:51;;;;;;;7.87;3.50;;;17.20;47.00;;;;;;4935970;29;20265;-64
2023/02/04 19:09:31;;;;;;;8.83;4.90;;;17.20;47.00;;;;;;4936120;29;20415;-65
2023/02/04 19:11:59;;;;;;;6.13;3.60;;;17.20;47.00;;;;;;4935990;29;20770;-65
2023/02/04 19:14:43;;;;;;;5.13;2.83;;;17.20;46.90;;;;;;4936399;29;20493;-65
2023/02/04 19:17:28;;;;;;;3.47;3.00;;;17.20;46.90;;;;;;4938358;29;20422;-64
2023/02/04 19:20:04;;;;;;;5.93;3.30;;;17.20;46.80;;;;;;4939789;29;20425;-66
2023/02/04 19:22:44;;;;;;;4.83;3.30;;;17.20;46.80;;;;;;4939813;29;20473;-65
2023/02/04 19:25:30;;;;;;;5.77;3.67;;;17.20;46.80;;;;;;4939363;29;20470;-65
2023/02/04 19:27:58;;;;;;;6.93;3.00;;;17.20;46.80;;;;;;4939792;29;20423;-65
2023/02/04 19:30:26;;;;;;;4.67;3.37;;;17.20;46.80;;;;;;4939567;29;20418;-64
2023/02/04 19:32:55;;;;;;;3.03;2.70;;;17.20;46.80;;;;;;4939516;29;20460;-64
2023/02/04 19:35:23;;;;;;;4.63;3.00;;;17.20;46.80;;;;;;4939384;29;20428;-64
2023/02/04 19:38:05;;;;;;;5.40;3.60;;;17.20;46.70;;;;;;4939324;29;20494;-66
2023/02/04 19:40:34;;;;;;;4.03;3.10;;;17.20;46.80;;;;;;4939469;29;20833;-64
2023/02/04 19:43:13;;;;;;;10.67;4.50;;;17.20;46.70;;;;;;4939226;29;20525;-64
2023/02/04 19:45:39;;;;;;;7.80;4.17;;;17.20;47.30;;;;;;4939380;29;20425;-64
2023/02/04 19:48:20;;;;;;;15.10;4.50;;;17.20;48.20;;;;;;4939292;29;20470;-64
2023/02/04 19:50:46;;;;;;;9.97;4.60;;;17.20;48.40;;;;;;4939502;29;20836;-65
2023/02/04 19:53:18;;;;;;;9.40;4.63;;;17.20;48.30;;;;;;4939617;29;20435;-64
2023/02/04 19:55:52;;;;;;;11.57;4.90;;;17.30;48.40;;;;;;4939448;29;20403;-65
2023/02/04 19:58:23;;;;;;;8.40;4.87;;;17.30;48.30;;;;;;4939101;29;20415;-64
2023/02/04 20:00:55;;;;;;;6.50;4.50;;;17.30;48.20;;;;;;4937831;29;20438;-65
2023/02/04 20:03:24;;;;;;;7.70;4.40;;;17.30;48.20;;;;;;4938975;29;20494;-65
2023/02/04 20:05:50;;;;;;;10.33;4.67;;;17.30;48.10;;;;;;4939004;29;20415;-64
2023/02/04 20:08:39;;;;;;;7.57;4.37;;;17.30;48.10;;;;;;4939061;29;20410;-64
2023/02/04 20:11:52;;;;;;;4.67;4.10;;;17.30;48.10;;;;;;4938853;29;20779;-65
2023/02/04 20:14:48;;;;;;;12.20;4.90;;;17.30;48.10;;;;;;4926196;29;20450;-65
2023/02/04 20:17:22;;;;;;;8.07;4.90;;;17.30;48.10;;;;;;4930981;29;20444;-65
2023/02/04 20:19:49;;;;;;;8.83;4.30;;;17.20;47.90;;;;;;4938716;29;20446;-65
2023/02/04 20:22:22;;;;;;;10.00;5.00;;;17.20;47.90;;;;;;4938450;29;20455;-64
2023/02/04 20:24:51;;;;;;;10.23;4.70;;;17.20;48.10;;;;;;4938561;29;20422;-65
2023/02/04 20:27:20;;;;;;;7.93;3.93;;;17.30;48.80;;;;;;4937784;29;20399;-66
2023/02/04 20:29:47;;;;;;;9.43;4.60;;;17.30;48.90;;;;;;4938297;29;20422;-65
2023/02/04 20:32:25;;;;;;;8.00;4.70;;;17.30;48.80;;;;;;4938289;29;20751;-65
2023/02/04 20:35:22;;;;;;;7.90;4.57;;;17.30;48.80;;;;;;4938526;29;20418;-65
2023/02/04 20:37:54;;;;;;;5.00;4.10;;;17.30;48.60;;;;;;4938129;29;20415;-64
2023/02/04 20:40:21;;;;;;;7.83;3.73;;;17.30;48.50;;;;;;4938226;29;20422;-64
2023/02/04 20:43:09;;;;;;;7.00;4.50;;;17.30;48.40;;;;;;4937996;29;21070;-65
2023/02/04 20:45:39;;;;;;;6.10;5.00;;;17.30;48.40;;;;;;4930398;29;20990;-65
2023/02/04 20:48:07;;;;;;;6.70;4.23;;;17.30;48.30;;;;;;4938095;29;20510;-65
2023/02/04 20:50:41;;;;;;;9.60;4.23;;;17.30;48.30;;;;;;4938082;29;20498;-64
2023/02/04 20:53:23;;;;;;;5.57;4.50;;;17.30;48.20;;;;;;4938166;29;20522;-65
2023/02/04 20:55:50;;;;;;;8.67;5.03;;;17.30;48.10;;;;;;4938134;29;20425;-65
2023/02/04 20:58:22;;;;;;;8.83;4.87;;;17.30;48.10;;;;;;4937948;29;20444;-65
2023/02/04 21:00:54;;;;;;;7.57;5.00;;;17.30;48.10;;;;;;4937826;29;20419;-65
2023/02/04 21:03:36;;;;;;;5.90;4.53;;;17.30;48.00;;;;;;4937520;29;20470;-65
2023/02/04 21:06:16;;;;;;;9.77;4.53;;;17.30;48.00;;;;;;4937744;29;20407;-65
2023/02/04 21:08:46;;;;;;;7.83;4.73;;;17.30;47.90;;;;;;4938017;29;20941;-65
2023/02/04 21:11:12;;;;;;;5.53;4.63;;;17.30;47.90;;;;;;4938362;29;20500;-64
2023/02/04 21:13:38;;;;;;;5.07;3.90;;;17.30;47.90;;;;;;4937533;29;20531;-66